Lewistown, Ohio
Current Conditions -  °F | °C
As of 9:10 AM on Thursday 29 Jan 2015 (Local Time) from KEDJ Reporting Station
Broken Clouds Broken Clouds  
Wind Chill: 22°   Ceiling: 6500
Heat Index: 32°   Visibility: 7mi
Dew Point: 32°   Wind: 14mph
Humidity: 100%   Direction: 170°S
Pressure: 29.81"   Gusts: NA
Location:  40.42°N, 83.88°W
Report Text: KEDJ 291410Z AUTO 17012KT 7SM SCT049 BKN065 00/00 A2981 RMK AO1 P0001
Loading
Personal Weather Stations






























Interactive Weather Map New forecast layout! Learn more

10-Day Weather Forecast

Advertisements
Track Severe Weather on mobile